createdAt,value
2022-10-29T00:00:48.647Z,60.59
2022-10-29T00:03:15.138Z,60.20
2022-10-29T00:05:41.607Z,60.14
2022-10-29T00:08:08.033Z,59.86
2022-10-29T00:10:34.523Z,59.91
2022-10-29T00:13:02.508Z,59.94
2022-10-29T00:15:29.464Z,60.21
2022-10-29T00:17:56.409Z,60.24
2022-10-29T00:20:23.947Z,60.13
2022-10-29T00:22:54.370Z,60.43
2022-10-29T00:25:21.451Z,60.84
2022-10-29T00:27:47.873Z,60.78
2022-10-29T00:30:14.312Z,60.36
2022-10-29T00:32:40.739Z,60.30
2022-10-29T00:35:07.400Z,60.41
2022-10-29T00:37:34.928Z,60.44
2022-10-29T00:40:01.424Z,60.33
2022-10-29T00:42:27.836Z,60.19
2022-10-29T00:44:54.291Z,60.58
2022-10-29T00:47:30.837Z,60.06
2022-10-29T00:50:18.844Z,60.48
2022-10-29T00:52:47.220Z,60.24
2022-10-29T00:55:15.743Z,60.40
2022-10-29T00:57:48.686Z,60.77
2022-10-29T01:00:17.161Z,60.65
2022-10-29T01:02:45.210Z,60.97
2022-10-29T01:08:58.797Z,60.63
2022-10-29T01:11:49.980Z,61.12
2022-10-29T01:14:28.495Z,61.32
2022-10-29T01:17:17.602Z,61.11
2022-10-29T01:20:02.977Z,61.24
2022-10-29T01:23:01.571Z,61.71
2022-10-29T01:25:43.153Z,62.15
2022-10-29T01:28:41.835Z,61.86
2022-10-29T01:31:38.083Z,62.10
2022-10-29T01:34:13.995Z,62.06
2022-10-29T01:37:07.362Z,62.38
2022-10-29T01:39:39.963Z,62.25
2022-10-29T01:42:24.103Z,62.16
2022-10-29T01:44:58.277Z,62.42
2022-10-29T01:47:30.773Z,62.51
2022-10-29T01:50:05.022Z,62.87
2022-10-29T01:52:35.161Z,62.73
2022-10-29T01:55:02.104Z,62.94
2022-10-29T01:57:32.808Z,63.02
2022-10-29T02:00:11.863Z,62.93
2022-10-29T02:03:06.077Z,63.65
2022-10-29T02:05:39.272Z,63.66
2022-10-29T02:08:29.363Z,63.18
2022-10-29T02:11:07.686Z,63.26
2022-10-29T02:13:51.561Z,63.37
2022-10-29T02:16:18.619Z,63.63
2022-10-29T02:18:47.526Z,63.50
2022-10-29T02:21:18.350Z,63.52
2022-10-29T02:23:45.767Z,63.47
2022-10-29T02:26:12.828Z,63.64
2022-10-29T02:28:39.352Z,63.64
2022-10-29T02:31:06.013Z,63.92
2022-10-29T02:33:32.451Z,63.90
2022-10-29T02:35:58.980Z,63.89
2022-10-29T02:38:25.595Z,63.83
2022-10-29T02:40:52.060Z,64.06
2022-10-29T02:45:45.986Z,63.51
2022-10-29T02:48:12.529Z,64.10
2022-10-29T02:50:38.966Z,63.79
2022-10-29T02:53:05.435Z,63.67
2022-10-29T02:55:31.836Z,63.83
2022-10-29T02:57:58.494Z,63.76
2022-10-29T03:00:25.162Z,63.82
2022-10-29T03:02:52.762Z,63.89
2022-10-29T03:05:19.356Z,64.07
2022-10-29T03:07:45.985Z,64.03
2022-10-29T03:10:12.583Z,64.22
2022-10-29T03:12:39.022Z,64.14
2022-10-29T03:15:05.984Z,63.92
2022-10-29T03:17:32.454Z,64.24
2022-10-29T03:19:59.036Z,64.34
2022-10-29T03:22:25.485Z,64.37
2022-10-29T03:24:51.945Z,64.28
2022-10-29T03:27:18.396Z,64.36
2022-10-29T03:29:44.822Z,64.30
2022-10-29T03:32:11.417Z,64.57
2022-10-29T03:34:37.842Z,64.82
2022-10-29T03:37:04.280Z,64.54
2022-10-29T03:39:30.752Z,64.92
2022-10-29T03:41:57.164Z,64.80
2022-10-29T03:44:23.813Z,64.65
2022-10-29T03:46:50.216Z,65.07
2022-10-29T03:49:16.612Z,65.43
2022-10-29T03:51:43.076Z,65.51
2022-10-29T03:54:09.524Z,65.71
2022-10-29T03:56:36.128Z,65.39
2022-10-29T03:59:02.723Z,65.67
2022-10-29T04:01:29.427Z,66.35
2022-10-29T04:03:55.948Z,65.96
2022-10-29T04:06:22.398Z,66.38
2022-10-29T04:08:48.895Z,66.60
2022-10-29T04:11:15.292Z,66.10
2022-10-29T04:13:41.753Z,66.25
2022-10-29T04:16:08.312Z,66.24
2022-10-29T04:18:34.794Z,65.93
2022-10-29T04:29:22.737Z,66.53
2022-10-29T04:31:49.461Z,66.43
2022-10-29T04:34:15.961Z,66.21
2022-10-29T04:36:42.382Z,66.30
2022-10-29T04:39:08.874Z,66.42
2022-10-29T04:41:35.347Z,66.92
2022-10-29T04:44:02.549Z,66.82
2022-10-29T04:46:29.149Z,66.81
2022-10-29T04:48:55.792Z,67.64
2022-10-29T04:51:25.089Z,67.26
2022-10-29T04:53:51.533Z,67.88
2022-10-29T04:56:18.461Z,67.65
2022-10-29T04:58:45.111Z,67.77
2022-10-29T05:01:11.674Z,67.79
2022-10-29T05:03:38.279Z,67.71
2022-10-29T05:06:05.943Z,67.79
2022-10-29T05:08:33.276Z,67.63
2022-10-29T05:11:04.598Z,67.28
2022-10-29T05:13:31.372Z,67.14
2022-10-29T05:15:58.036Z,67.09
2022-10-29T05:18:24.449Z,67.19
2022-10-29T05:20:57.610Z,67.43
2022-10-29T05:23:24.257Z,67.33
2022-10-29T05:25:52.153Z,67.04
2022-10-29T05:28:21.430Z,67.39
2022-10-29T05:30:50.829Z,67.16
2022-10-29T05:33:19.647Z,67.65
2022-10-29T05:35:47.271Z,67.55
2022-10-29T05:38:15.230Z,67.30
2022-10-29T05:40:44.889Z,67.66
2022-10-29T05:43:13.073Z,67.28
2022-10-29T05:45:39.848Z,68.42
2022-10-29T05:48:06.875Z,68.30
2022-10-29T05:50:34.583Z,68.65
2022-10-29T05:53:02.986Z,69.13
2022-10-29T05:55:31.777Z,69.83
2022-10-29T05:58:00.549Z,69.50
2022-10-29T06:00:29.482Z,69.45
2022-10-29T06:02:56.942Z,69.84
2022-10-29T06:05:23.970Z,70.31
2022-10-29T06:08:08.602Z,68.88
2022-10-29T06:10:35.455Z,68.75
2022-10-29T06:13:01.915Z,68.90
2022-10-29T06:15:28.400Z,69.41
2022-10-29T06:17:55.124Z,69.33
2022-10-29T06:20:21.980Z,68.75
2022-10-29T06:22:57.281Z,68.42
2022-10-29T06:25:25.343Z,68.82
2022-10-29T06:28:19.120Z,69.48
2022-10-29T06:30:50.516Z,69.35
2022-10-29T06:33:18.884Z,69.30
2022-10-29T06:35:46.161Z,69.19
2022-10-29T06:38:13.070Z,68.54
2022-10-29T06:40:40.825Z,68.58
2022-10-29T06:43:11.386Z,68.97
2022-10-29T06:45:37.986Z,67.72
2022-10-29T06:48:07.766Z,67.30
2022-10-29T06:50:34.340Z,66.80
2022-10-29T06:53:06.055Z,66.68
2022-10-29T06:55:35.417Z,67.13
2022-10-29T06:58:04.701Z,67.22
2022-10-29T07:00:32.355Z,67.14
2022-10-29T07:03:00.115Z,66.96
2022-10-29T07:05:27.619Z,67.38
2022-10-29T07:07:58.567Z,67.39
2022-10-29T07:10:27.624Z,67.71
2022-10-29T07:12:54.048Z,68.20
2022-10-29T07:15:24.151Z,67.52
2022-10-29T07:18:05.017Z,68.11
2022-10-29T07:20:34.632Z,67.56
2022-10-29T07:23:03.871Z,67.43
2022-10-29T07:25:31.639Z,66.92
2022-10-29T07:28:20.747Z,66.09
2022-10-29T07:30:48.506Z,66.30
2022-10-29T07:33:15.232Z,66.04
2022-10-29T07:35:41.851Z,65.58
2022-10-29T07:38:11.182Z,65.85
2022-10-29T07:40:47.417Z,65.29
2022-10-29T07:43:14.020Z,65.07
2022-10-29T07:45:42.052Z,65.30
2022-10-29T07:48:09.306Z,64.66
2022-10-29T07:50:37.551Z,64.45
2022-10-29T07:53:06.155Z,64.45
2022-10-29T07:55:32.848Z,64.25
2022-10-29T07:58:02.392Z,64.26
2022-10-29T08:00:30.425Z,63.95
2022-10-29T08:02:57.285Z,63.38
2022-10-29T08:05:25.455Z,63.21
2022-10-29T08:07:55.829Z,63.11
2022-10-29T08:10:24.319Z,62.01
2022-10-29T08:12:56.129Z,61.35
2022-10-29T08:15:24.156Z,60.92
2022-10-29T08:17:51.040Z,60.65
2022-10-29T08:20:18.663Z,60.57
2022-10-29T08:22:45.290Z,60.63
2022-10-29T08:25:12.629Z,60.10
2022-10-29T08:27:39.187Z,59.68
2022-10-29T08:30:07.171Z,59.02
2022-10-29T08:32:33.614Z,57.85
2022-10-29T08:35:00.025Z,57.02
2022-10-29T08:37:26.568Z,56.78
2022-10-29T09:15:10.548Z,53.83
2022-10-29T09:18:03.151Z,53.79
2022-10-29T09:20:38.478Z,53.93
2022-10-29T09:26:48.193Z,51.47
2022-10-29T09:29:33.059Z,49.87
2022-10-29T09:32:04.489Z,49.81
2022-10-29T09:34:37.363Z,49.50
2022-10-29T09:37:13.456Z,49.42
2022-10-29T09:39:42.083Z,49.22
2022-10-29T09:42:20.124Z,50.31
2022-10-29T09:44:58.341Z,51.39
2022-10-29T09:47:56.741Z,49.23
2022-10-29T09:50:26.279Z,50.35
2022-10-29T09:52:53.565Z,50.80
2022-10-29T09:55:28.587Z,51.60
2022-10-29T09:57:57.019Z,51.08
2022-10-29T10:00:27.010Z,51.19
2022-10-29T10:03:16.146Z,51.80
2022-10-29T10:05:59.601Z,52.07
2022-10-29T10:08:26.667Z,53.71
2022-10-29T10:10:59.691Z,53.89
2022-10-29T10:13:32.125Z,53.80
2022-10-29T10:16:04.022Z,54.50
2022-10-29T10:18:33.337Z,54.22
2022-10-29T10:20:59.829Z,54.01
2022-10-29T10:23:27.925Z,52.05
2022-10-29T10:26:02.272Z,50.58
2022-10-29T10:28:34.626Z,49.48
2022-10-29T10:31:03.888Z,48.46
2022-10-29T10:33:32.558Z,50.34
2022-10-29T10:36:05.772Z,49.07
2022-10-29T10:38:41.734Z,47.96
2022-10-29T10:41:10.778Z,46.91
2022-10-29T10:43:41.331Z,48.14
2022-10-29T10:46:32.313Z,48.34
2022-10-29T10:49:00.725Z,47.10
2022-10-29T10:51:33.362Z,46.48
2022-10-29T10:54:03.831Z,45.65
2022-10-29T10:56:30.495Z,45.88
2022-10-29T10:59:12.001Z,44.84
2022-10-29T11:01:42.810Z,46.58
2022-10-29T11:04:18.924Z,45.58
2022-10-29T11:06:49.848Z,44.76
2022-10-29T11:09:33.440Z,43.95
2022-10-29T11:12:11.579Z,44.51
2022-10-29T11:14:46.699Z,45.81
2022-10-29T11:17:26.319Z,44.73
2022-10-29T11:19:57.380Z,44.10
2022-10-29T11:23:02.136Z,42.90
2022-10-29T11:25:47.471Z,43.47
2022-10-29T11:28:38.484Z,45.71
2022-10-29T11:31:34.862Z,45.80
2022-10-29T11:34:10.138Z,45.45
2022-10-29T11:36:43.012Z,44.48
2022-10-29T11:39:17.161Z,44.55
2022-10-29T11:41:58.382Z,45.70
2022-10-29T11:44:25.874Z,44.24
2022-10-29T11:47:18.759Z,45.64
2022-10-29T11:50:09.745Z,45.40
2022-10-29T11:52:59.593Z,45.18
2022-10-29T11:55:47.028Z,44.42
2022-10-29T11:58:37.977Z,43.26
2022-10-29T12:01:23.685Z,41.61
2022-10-29T12:06:58.291Z,42.80
2022-10-29T12:09:27.559Z,45.52
2022-10-29T12:12:17.923Z,45.76
2022-10-29T12:15:10.424Z,46.02
2022-10-29T12:17:52.163Z,46.10
2022-10-29T12:20:30.680Z,47.20
2022-10-29T12:23:46.231Z,46.86
2022-10-29T12:26:23.484Z,46.24
2022-10-29T12:29:04.028Z,47.95
2022-10-29T12:31:39.740Z,47.78
2022-10-29T12:34:12.780Z,45.23
2022-10-29T12:36:55.065Z,45.37
2022-10-29T12:39:37.079Z,42.01
2022-10-29T12:42:24.310Z,43.00
2022-10-29T12:45:06.968Z,40.15
2022-10-29T12:47:47.591Z,40.63
2022-10-29T12:50:46.011Z,43.13
2022-10-29T12:53:40.457Z,42.04
2022-10-29T12:56:08.847Z,44.63
2022-10-29T12:58:46.053Z,46.12
2022-10-29T13:01:49.998Z,47.51
2022-10-29T13:04:28.648Z,48.91
2022-10-29T13:07:01.908Z,49.54
2022-10-29T13:09:29.864Z,48.29
2022-10-29T13:12:13.767Z,50.05
2022-10-29T13:14:43.176Z,51.09
2022-10-29T13:17:29.097Z,51.48
2022-10-29T13:19:59.970Z,51.15
2022-10-29T13:22:54.105Z,50.92
2022-10-29T13:25:38.618Z,51.23
2022-10-29T13:28:07.754Z,50.63
2022-10-29T13:30:34.958Z,51.22
2022-10-29T13:33:01.573Z,51.00
2022-10-29T13:35:27.935Z,51.61
2022-10-29T13:38:16.333Z,52.27
2022-10-29T13:41:01.511Z,52.35
2022-10-29T13:43:28.389Z,52.21
2022-10-29T13:46:09.365Z,52.81
2022-10-29T13:48:36.904Z,52.30
2022-10-29T13:51:08.040Z,52.74
2022-10-29T13:53:41.800Z,52.45
2022-10-29T13:56:11.181Z,52.20
2022-10-29T13:58:40.727Z,53.03
2022-10-29T14:01:17.446Z,53.05
2022-10-29T14:04:11.966Z,52.58
2022-10-29T14:06:40.455Z,53.10
2022-10-29T14:09:20.486Z,53.83
2022-10-29T14:12:03.140Z,53.68
2022-10-29T14:15:11.496Z,52.78
2022-10-29T14:17:39.771Z,53.78
2022-10-29T14:20:26.361Z,54.22
2022-10-29T14:22:52.869Z,53.81
2022-10-29T14:25:25.096Z,54.30
2022-10-29T14:28:11.052Z,54.90
2022-10-29T14:30:37.486Z,55.24
2022-10-29T14:33:27.896Z,55.08
2022-10-29T14:36:08.595Z,56.25
2022-10-29T14:39:06.476Z,55.82
2022-10-29T14:41:32.947Z,55.61
2022-10-29T14:44:10.568Z,55.69
2022-10-29T14:46:38.620Z,56.28
2022-10-29T14:49:17.821Z,56.29
2022-10-29T14:51:57.797Z,56.73
2022-10-29T14:54:30.714Z,56.30
2022-10-29T14:57:01.506Z,56.42
2022-10-29T14:59:30.688Z,56.56
2022-10-29T15:02:31.936Z,56.61
2022-10-29T15:05:01.872Z,56.35
2022-10-29T15:07:35.530Z,56.62
2022-10-29T15:10:16.914Z,55.85
2022-10-29T15:12:44.731Z,56.38
2022-10-29T15:15:18.338Z,56.43
2022-10-29T15:18:02.026Z,56.41
2022-10-29T15:20:28.429Z,57.13
2022-10-29T15:22:56.813Z,57.33
2022-10-29T15:25:26.368Z,57.61
2022-10-29T15:27:53.045Z,57.34
2022-10-29T15:30:22.078Z,58.24
2022-10-29T15:32:49.094Z,58.45
2022-10-29T15:35:21.349Z,58.32
2022-10-29T15:37:47.817Z,58.54
2022-10-29T15:40:22.080Z,59.69
2022-10-29T15:42:49.022Z,58.96
2022-10-29T15:45:20.110Z,59.68
2022-10-29T15:47:49.336Z,59.14
2022-10-29T15:50:22.552Z,59.35
2022-10-29T15:53:05.784Z,59.36
2022-10-29T15:55:35.059Z,60.26
2022-10-29T15:58:16.845Z,60.62
2022-10-29T16:00:43.285Z,60.67
2022-10-29T16:03:19.967Z,60.17
2022-10-29T16:05:49.555Z,60.44
2022-10-29T16:08:39.394Z,60.78
2022-10-29T16:11:08.272Z,60.15
2022-10-29T16:13:35.527Z,60.40
2022-10-29T16:16:02.320Z,59.47
2022-10-29T16:18:28.809Z,59.92
2022-10-29T16:21:00.699Z,60.11
2022-10-29T16:23:27.282Z,60.45
2022-10-29T16:25:53.732Z,60.44
2022-10-29T16:28:20.144Z,60.64
2022-10-29T16:30:52.674Z,61.22
2022-10-29T16:33:19.387Z,61.27
2022-10-29T16:35:45.953Z,61.55
2022-10-29T16:38:12.538Z,60.87
2022-10-29T16:40:39.519Z,61.81
2022-10-29T16:43:06.090Z,61.87
2022-10-29T16:45:32.508Z,61.90
2022-10-29T16:47:59.693Z,62.12
2022-10-29T16:50:29.541Z,61.64
2022-10-29T16:53:07.427Z,62.04
2022-10-29T16:55:36.728Z,62.34
2022-10-29T16:58:03.354Z,62.59
2022-10-29T17:00:32.975Z,62.01
2022-10-29T17:03:04.766Z,62.44
2022-10-29T17:05:37.690Z,62.35
2022-10-29T17:08:04.352Z,62.91
2022-10-29T17:10:31.257Z,62.68
2022-10-29T17:12:58.821Z,62.93
2022-10-29T17:15:26.178Z,63.10
2022-10-29T17:17:52.865Z,63.08
2022-10-29T17:20:19.698Z,62.71
2022-10-29T17:22:46.118Z,63.31
2022-10-29T17:25:12.528Z,63.26
2022-10-29T17:27:40.399Z,62.74
2022-10-29T17:30:08.570Z,63.75
2022-10-29T17:32:35.043Z,63.69
2022-10-29T17:35:01.603Z,64.43
2022-10-29T17:37:28.519Z,63.63
2022-10-29T17:39:54.894Z,64.04
2022-10-29T17:42:21.398Z,64.41
2022-10-29T17:44:47.777Z,64.77
2022-10-29T17:47:14.192Z,63.99
2022-10-29T17:49:40.597Z,63.55
2022-10-29T17:52:07.060Z,63.08
2022-10-29T17:54:35.199Z,64.02
2022-10-29T17:57:01.941Z,64.60
2022-10-29T17:59:28.414Z,64.41
2022-10-29T18:01:54.943Z,63.47
2022-10-29T18:04:21.442Z,64.66
2022-10-29T18:06:47.873Z,64.63
2022-10-29T18:09:17.100Z,65.09
2022-10-29T18:11:48.565Z,64.29
2022-10-29T18:14:15.103Z,64.15
2022-10-29T18:16:41.586Z,64.19
2022-10-29T18:19:08.051Z,63.97
2022-10-29T18:21:34.456Z,64.68
2022-10-29T18:24:00.990Z,65.03
2022-10-29T18:26:28.872Z,65.21
2022-10-29T18:28:56.223Z,65.21
2022-10-29T18:31:29.823Z,66.09
2022-10-29T18:33:57.429Z,65.46
2022-10-29T18:36:24.047Z,66.59
2022-10-29T18:38:52.476Z,66.35
2022-10-29T18:41:19.383Z,66.17
2022-10-29T18:43:45.899Z,66.22
2022-10-29T18:46:13.097Z,66.52
2022-10-29T18:48:46.169Z,66.15
2022-10-29T18:51:15.636Z,66.00
2022-10-29T18:53:42.031Z,66.31
2022-10-29T18:56:17.004Z,66.12
2022-10-29T18:58:44.410Z,66.31
2022-10-29T19:01:24.909Z,66.54
2022-10-29T19:03:54.455Z,66.69
2022-10-29T19:06:22.069Z,67.16
2022-10-29T19:08:49.366Z,66.83
2022-10-29T19:11:18.948Z,66.69
2022-10-29T19:13:51.248Z,66.94
2022-10-29T19:16:18.403Z,67.05
2022-10-29T19:18:44.984Z,67.48
2022-10-29T19:21:21.085Z,67.70
2022-10-29T19:23:47.851Z,67.79
2022-10-29T19:26:17.977Z,68.48
2022-10-29T19:28:46.373Z,68.47
2022-10-29T19:31:18.362Z,68.22
2022-10-29T19:33:49.554Z,68.12
2022-10-29T19:36:16.658Z,68.34
2022-10-29T19:38:43.422Z,68.71
2022-10-29T19:41:12.200Z,67.99
2022-10-29T19:43:39.642Z,68.16
2022-10-29T19:46:08.396Z,68.24
2022-10-29T19:48:35.770Z,69.02
2022-10-29T19:51:02.601Z,68.01
2022-10-29T19:53:29.001Z,67.80
2022-10-29T19:55:55.466Z,66.96
2022-10-29T19:58:26.591Z,67.00
2022-10-29T20:00:53.937Z,68.08
2022-10-29T20:03:20.998Z,67.50
2022-10-29T20:05:47.427Z,67.44
2022-10-29T20:08:16.038Z,67.24
2022-10-29T20:10:43.294Z,66.97
2022-10-29T20:13:09.741Z,66.99
2022-10-29T20:15:39.598Z,66.70
2022-10-29T20:18:06.103Z,67.27
2022-10-29T20:20:32.614Z,67.60
2022-10-29T20:23:00.103Z,67.30
2022-10-29T20:25:27.278Z,66.73
2022-10-29T20:27:53.653Z,67.06
2022-10-29T20:30:20.050Z,67.79
2022-10-29T20:32:47.645Z,67.29
2022-10-29T20:35:14.071Z,66.60
2022-10-29T20:37:40.457Z,66.92
2022-10-29T20:40:07.363Z,67.51
2022-10-29T20:42:33.746Z,67.92
2022-10-29T20:45:00.137Z,67.55
2022-10-29T20:47:26.557Z,68.70
2022-10-29T20:49:52.929Z,69.31
2022-10-29T20:52:19.422Z,68.17
2022-10-29T20:54:45.828Z,67.44
2022-10-29T20:57:12.247Z,67.43
2022-10-29T20:59:38.628Z,67.31
2022-10-29T21:02:05.096Z,67.29
2022-10-29T21:04:31.551Z,66.89
2022-10-29T21:06:57.942Z,67.30
2022-10-29T21:09:24.397Z,67.43
2022-10-29T21:11:50.798Z,67.39
2022-10-29T21:14:17.280Z,68.05
2022-10-29T21:16:43.699Z,67.73
2022-10-29T21:19:10.189Z,68.03
2022-10-29T21:21:36.643Z,68.29
2022-10-29T21:24:03.195Z,69.78
2022-10-29T21:26:29.622Z,70.01
2022-10-29T21:28:56.340Z,69.05
2022-10-29T21:31:23.534Z,68.83
2022-10-29T21:33:53.860Z,68.70
2022-10-29T21:36:20.594Z,68.80
2022-10-29T21:38:48.114Z,68.94
2022-10-29T21:41:15.277Z,69.09
2022-10-29T21:43:41.823Z,69.26
2022-10-29T21:46:08.283Z,68.42
2022-10-29T21:48:35.046Z,68.64
2022-10-29T21:51:04.124Z,68.26
2022-10-29T21:53:31.125Z,68.25
2022-10-29T21:55:59.047Z,69.50
2022-10-29T21:58:26.161Z,69.32
2022-10-29T22:01:00.890Z,69.09
2022-10-29T22:03:30.278Z,68.78
2022-10-29T22:06:07.850Z,69.60
2022-10-29T22:08:34.735Z,68.83
2022-10-29T22:11:01.952Z,69.40
2022-10-29T22:13:29.735Z,69.21
2022-10-29T22:15:56.624Z,69.60
2022-10-29T22:18:23.598Z,69.08
2022-10-29T22:20:50.118Z,68.88
2022-10-29T22:25:51.144Z,70.39
2022-10-29T22:28:17.686Z,69.91
2022-10-29T22:30:44.093Z,71.34
2022-10-29T22:33:10.534Z,71.18
2022-10-29T22:35:36.972Z,71.30
2022-10-29T22:38:03.431Z,70.88
2022-10-29T22:40:29.896Z,70.57
2022-10-29T22:42:56.621Z,70.09
2022-10-29T22:45:23.228Z,69.61
2022-10-29T22:47:49.633Z,69.33
2022-10-29T22:50:16.097Z,69.28
2022-10-29T22:52:42.619Z,69.15
2022-10-29T22:55:09.315Z,69.69
2022-10-29T22:57:35.772Z,69.46
2022-10-29T23:00:02.176Z,69.06
2022-10-29T23:02:28.596Z,68.70
2022-10-29T23:04:55.033Z,68.94
2022-10-29T23:07:21.576Z,68.58
2022-10-29T23:09:48.086Z,68.22
2022-10-29T23:12:14.615Z,68.33
2022-10-29T23:14:41.118Z,68.14
2022-10-29T23:17:07.552Z,67.97
2022-10-29T23:19:34.008Z,68.34
2022-10-29T23:22:00.455Z,68.27
2022-10-29T23:24:26.900Z,68.71
2022-10-29T23:26:53.311Z,68.69
2022-10-29T23:29:19.726Z,68.60
2022-10-29T23:31:46.262Z,69.10
2022-10-29T23:34:12.792Z,69.28
2022-10-29T23:36:39.244Z,69.33
2022-10-29T23:39:05.712Z,69.63
2022-10-29T23:41:32.318Z,70.46
2022-10-29T23:43:59.092Z,70.90
2022-10-29T23:46:25.545Z,70.20
2022-10-29T23:48:52.113Z,70.22
2022-10-29T23:51:18.802Z,70.07
2022-10-29T23:53:45.378Z,71.08
2022-10-29T23:56:11.880Z,71.57
2022-10-29T23:58:38.287Z,72.27
